Terminal Aerodrome Forecast
Issued by NWS

Home | Current Version | Previous Version | Graphics & Text | Print | Product List | Glossary On
Versions: 1 2 3 4 5 6 7 8 9 10 11 12 13 14 15 16 17 18 19 20
000
FTUS41 KCLE 312129 AAA
TAFFDY
TAF AMD
KFDY 312129Z 3121/0118 27015G25KT P6SM VCTS BKN050CB BKN150
     FM312300 25008KT P6SM SKC
     FM011400 26008KT P6SM SKC=

USA.gov is the U.S. government's official web portal to all federal, state and local government web resources and services.